createdAt,value
2018-07-15T00:01:43.614Z,17.75
2018-07-15T00:04:11.828Z,17.32
2018-07-15T00:06:40.141Z,17.13
2018-07-15T00:09:08.452Z,17.05
2018-07-15T00:11:36.679Z,16.85
2018-07-15T00:14:04.915Z,16.87
2018-07-15T00:16:33.093Z,16.86
2018-07-15T00:19:01.388Z,16.65
2018-07-15T00:21:29.559Z,16.55
2018-07-15T00:23:57.832Z,16.43
2018-07-15T00:26:26.018Z,16.30
2018-07-15T00:28:54.192Z,16.08
2018-07-15T00:31:22.417Z,16.20
2018-07-15T00:33:50.769Z,16.29
2018-07-15T00:36:18.961Z,16.12
2018-07-15T00:38:47.224Z,16.32
2018-07-15T00:41:15.496Z,16.10
2018-07-15T00:43:43.754Z,16.27
2018-07-15T00:46:11.994Z,16.14
2018-07-15T00:48:40.637Z,15.89
2018-07-15T00:51:08.859Z,16.19
2018-07-15T00:53:37.074Z,15.92
2018-07-15T00:56:05.345Z,15.79
2018-07-15T00:58:33.523Z,15.80
2018-07-15T01:01:04.048Z,15.91
2018-07-15T01:03:34.076Z,15.82
2018-07-15T01:06:02.593Z,15.87
2018-07-15T01:08:31.962Z,16.00
2018-07-15T01:11:00.206Z,15.92
2018-07-15T01:13:28.446Z,15.83
2018-07-15T01:15:56.715Z,15.88
2018-07-15T01:18:24.968Z,15.91
2018-07-15T01:20:53.319Z,15.81
2018-07-15T01:23:21.568Z,16.06
2018-07-15T01:25:49.891Z,16.17
2018-07-15T01:28:18.109Z,15.89
2018-07-15T01:30:46.396Z,15.96
2018-07-15T01:33:14.615Z,15.96
2018-07-15T01:35:42.923Z,15.87
2018-07-15T01:38:11.160Z,16.33
2018-07-15T01:40:39.433Z,16.06
2018-07-15T01:43:07.651Z,15.84
2018-07-15T01:45:36.018Z,16.00
2018-07-15T01:48:04.244Z,16.08
2018-07-15T01:50:32.513Z,15.81
2018-07-15T01:53:00.751Z,15.70
2018-07-15T01:55:28.989Z,15.47
2018-07-15T01:57:57.307Z,15.86
2018-07-15T02:00:26.213Z,15.81
2018-07-15T02:02:54.506Z,15.79
2018-07-15T02:05:22.765Z,15.84
2018-07-15T02:07:51.004Z,15.78
2018-07-15T02:10:19.297Z,15.74
2018-07-15T02:12:47.555Z,16.09
2018-07-15T02:15:15.822Z,16.13
2018-07-15T02:17:44.051Z,15.70
2018-07-15T02:20:12.360Z,15.63
2018-07-15T02:22:40.590Z,15.46
2018-07-15T02:25:08.831Z,15.55
2018-07-15T02:27:37.059Z,15.38
2018-07-15T02:30:05.453Z,15.15
2018-07-15T02:32:33.665Z,15.09
2018-07-15T02:35:01.892Z,14.82
2018-07-15T02:37:30.278Z,14.77
2018-07-15T02:39:58.560Z,14.98
2018-07-15T02:42:26.979Z,15.01
2018-07-15T02:44:55.207Z,14.83
2018-07-15T02:47:23.428Z,14.76
2018-07-15T02:49:51.729Z,14.84
2018-07-15T02:52:20.022Z,14.82
2018-07-15T02:54:48.229Z,14.83
2018-07-15T02:57:16.487Z,14.63
2018-07-15T02:59:44.910Z,14.54
2018-07-15T03:02:13.177Z,14.82
2018-07-15T03:04:41.481Z,14.67
2018-07-15T03:07:09.774Z,14.56
2018-07-15T03:09:38.093Z,14.58
2018-07-15T03:12:06.343Z,14.71
2018-07-15T03:14:34.633Z,14.73
2018-07-15T03:17:02.868Z,14.89
2018-07-15T03:19:31.081Z,14.58
2018-07-15T03:21:59.397Z,14.50
2018-07-15T03:24:27.623Z,14.55
2018-07-15T03:26:55.965Z,14.42
2018-07-15T03:29:24.455Z,14.55
2018-07-15T03:31:52.749Z,14.44
2018-07-15T03:34:20.968Z,14.44
2018-07-15T03:36:49.268Z,14.47
2018-07-15T03:39:19.086Z,14.50
2018-07-15T03:41:47.375Z,14.38
2018-07-15T03:44:15.565Z,14.37
2018-07-15T03:46:43.843Z,14.45
2018-07-15T03:49:12.041Z,14.49
2018-07-15T03:51:40.358Z,16.00
2018-07-15T03:54:08.591Z,16.30
2018-07-15T03:56:36.863Z,15.66
2018-07-15T03:59:05.117Z,17.65
2018-07-15T04:01:33.360Z,17.95
2018-07-15T04:04:01.573Z,19.14
2018-07-15T04:06:29.844Z,20.19
2018-07-15T04:08:58.140Z,20.50
2018-07-15T04:11:26.327Z,21.28
2018-07-15T04:13:54.569Z,21.79
2018-07-15T04:16:22.776Z,21.64
2018-07-15T04:18:51.053Z,21.94
2018-07-15T04:21:19.341Z,22.36
2018-07-15T04:23:47.572Z,22.78
2018-07-15T04:26:15.829Z,21.44
2018-07-15T04:28:44.048Z,18.98
2018-07-15T04:31:12.275Z,19.98
2018-07-15T04:33:40.554Z,17.41
2018-07-15T04:36:08.992Z,16.67
2018-07-15T04:38:37.259Z,16.24
2018-07-15T04:41:05.623Z,15.74
2018-07-15T04:43:33.881Z,15.59
2018-07-15T04:46:02.106Z,15.70
2018-07-15T04:48:30.372Z,15.54
2018-07-15T04:50:58.646Z,15.68
2018-07-15T04:53:26.910Z,15.65
2018-07-15T04:55:55.296Z,15.68
2018-07-15T04:58:23.588Z,15.62
2018-07-15T05:00:51.954Z,15.67
2018-07-15T05:03:20.231Z,15.68
2018-07-15T05:05:48.459Z,15.49
2018-07-15T05:08:16.729Z,15.43
2018-07-15T05:10:44.970Z,15.16
2018-07-15T05:13:13.250Z,15.61
2018-07-15T05:15:41.511Z,15.74
2018-07-15T05:18:09.813Z,15.78
2018-07-15T05:20:38.164Z,15.85
2018-07-15T05:23:06.446Z,15.95
2018-07-15T05:25:34.654Z,16.04
2018-07-15T05:28:02.919Z,15.78
2018-07-15T05:30:31.129Z,15.86
2018-07-15T05:32:59.323Z,15.61
2018-07-15T05:35:27.814Z,15.87
2018-07-15T05:37:56.069Z,15.71
2018-07-15T05:40:24.294Z,15.84
2018-07-15T05:42:52.564Z,16.02
2018-07-15T05:45:20.792Z,15.96
2018-07-15T05:47:49.070Z,15.96
2018-07-15T05:50:17.276Z,16.14
2018-07-15T05:52:45.511Z,16.00
2018-07-15T05:55:13.727Z,16.07
2018-07-15T05:57:42.003Z,16.08
2018-07-15T06:00:10.229Z,16.09
2018-07-15T06:02:38.468Z,16.11
2018-07-15T06:05:06.758Z,16.12
2018-07-15T06:07:35.076Z,16.11
2018-07-15T06:10:03.581Z,16.25
2018-07-15T06:12:31.800Z,16.12
2018-07-15T06:15:00.039Z,16.23
2018-07-15T06:17:28.301Z,16.38
2018-07-15T06:19:56.643Z,16.41
2018-07-15T06:22:24.878Z,16.18
2018-07-15T06:24:53.141Z,16.43
2018-07-15T06:27:21.364Z,16.48
2018-07-15T06:29:49.649Z,16.52
2018-07-15T06:32:17.902Z,16.58
2018-07-15T06:34:46.328Z,16.66
2018-07-15T06:37:14.615Z,16.63
2018-07-15T06:39:42.901Z,16.69
2018-07-15T06:42:11.264Z,16.73
2018-07-15T06:44:39.578Z,16.75
2018-07-15T06:47:07.875Z,16.76
2018-07-15T06:49:36.091Z,16.77
2018-07-15T06:52:04.416Z,16.76
2018-07-15T06:54:32.710Z,16.95
2018-07-15T06:57:01.051Z,16.88
2018-07-15T06:59:29.409Z,16.86
2018-07-15T07:01:57.726Z,16.95
2018-07-15T07:04:26.013Z,16.93
2018-07-15T07:06:54.289Z,16.99
2018-07-15T07:09:22.717Z,17.03
2018-07-15T07:11:50.987Z,17.10
2018-07-15T07:14:19.718Z,17.16
2018-07-15T07:16:47.912Z,17.26
2018-07-15T07:19:16.247Z,17.28
2018-07-15T07:21:44.475Z,17.28
2018-07-15T07:24:12.812Z,17.17
2018-07-15T07:26:41.165Z,17.28
2018-07-15T07:29:09.438Z,17.35
2018-07-15T07:31:37.655Z,17.52
2018-07-15T07:34:05.981Z,17.44
2018-07-15T07:36:34.248Z,17.38
2018-07-15T07:39:02.676Z,17.40
2018-07-15T07:41:31.001Z,17.71
2018-07-15T07:43:59.377Z,17.55
2018-07-15T07:46:27.680Z,17.60
2018-07-15T07:48:56.916Z,17.51
2018-07-15T07:51:25.402Z,17.53
2018-07-15T07:53:53.740Z,17.73
2018-07-15T07:56:22.036Z,17.85
2018-07-15T07:58:51.178Z,18.02
2018-07-15T08:01:19.526Z,17.90
2018-07-15T08:03:47.873Z,17.91
2018-07-15T08:06:16.383Z,18.12
2018-07-15T08:08:44.929Z,18.20
2018-07-15T08:11:13.194Z,18.22
2018-07-15T08:13:41.507Z,18.01
2018-07-15T08:16:09.867Z,18.00
2018-07-15T08:18:38.194Z,17.96
2018-07-15T08:21:06.510Z,18.02
2018-07-15T08:23:34.829Z,18.18
2018-07-15T08:26:03.100Z,18.35
2018-07-15T08:28:31.676Z,18.61
2018-07-15T08:31:16.584Z,18.80
2018-07-15T08:33:44.903Z,18.57
2018-07-15T08:36:13.359Z,18.34
2018-07-15T08:38:42.625Z,18.32
2018-07-15T08:41:10.997Z,18.39
2018-07-15T08:43:39.296Z,18.39
2018-07-15T08:46:08.012Z,18.45
2018-07-15T08:48:36.331Z,18.81
2018-07-15T08:51:04.790Z,18.93
2018-07-15T08:53:33.146Z,18.71
2018-07-15T08:56:01.429Z,19.15
2018-07-15T08:58:29.985Z,18.96
2018-07-15T09:00:58.301Z,18.93
2018-07-15T09:03:26.698Z,18.95
2018-07-15T09:05:55.070Z,19.02
2018-07-15T09:08:23.531Z,18.87
2018-07-15T09:10:51.766Z,18.88
2018-07-15T09:13:20.002Z,19.01
2018-07-15T09:15:48.743Z,18.80
2018-07-15T09:18:17.112Z,19.24
2018-07-15T09:20:45.661Z,19.45
2018-07-15T09:23:15.791Z,19.31
2018-07-15T09:25:44.172Z,19.54
2018-07-15T09:28:12.441Z,19.30
2018-07-15T09:30:40.870Z,19.28
2018-07-15T09:33:09.214Z,19.19
2018-07-15T09:35:37.760Z,19.60
2018-07-15T09:38:06.152Z,19.36
2018-07-15T09:40:34.449Z,19.79
2018-07-15T09:43:02.751Z,19.61
2018-07-15T09:45:31.030Z,19.49
2018-07-15T09:47:59.277Z,19.44
2018-07-15T09:50:27.589Z,20.01
2018-07-15T09:52:55.891Z,19.76
2018-07-15T09:55:24.189Z,20.10
2018-07-15T09:57:52.733Z,19.85
2018-07-15T10:00:26.563Z,19.99
2018-07-15T10:02:54.811Z,19.98
2018-07-15T10:05:23.154Z,19.87
2018-07-15T10:07:51.381Z,19.87
2018-07-15T10:10:19.902Z,20.24
2018-07-15T10:12:48.164Z,20.11
2018-07-15T10:15:16.467Z,19.98
2018-07-15T10:17:44.697Z,19.88
2018-07-15T10:20:13.052Z,19.80
2018-07-15T10:22:41.302Z,19.86
2018-07-15T10:25:09.671Z,20.05
2018-07-15T10:27:38.123Z,20.00
2018-07-15T10:30:06.704Z,19.99
2018-07-15T10:32:35.075Z,20.27
2018-07-15T10:35:03.400Z,20.36
2018-07-15T10:37:31.888Z,20.20
2018-07-15T10:40:00.224Z,20.40
2018-07-15T10:42:28.491Z,20.50
2018-07-15T10:44:56.796Z,20.56
2018-07-15T10:47:25.183Z,20.84
2018-07-15T10:49:53.905Z,20.83
2018-07-15T10:52:22.225Z,21.22
2018-07-15T10:54:50.506Z,21.00
2018-07-15T10:57:19.072Z,21.23
2018-07-15T10:59:47.462Z,21.04
2018-07-15T11:02:15.774Z,20.82
2018-07-15T11:04:44.035Z,21.10
2018-07-15T11:07:12.321Z,20.88
2018-07-15T11:09:40.704Z,20.83
2018-07-15T11:12:09.024Z,20.98
2018-07-15T11:14:37.577Z,20.89
2018-07-15T11:17:05.928Z,20.97
2018-07-15T11:19:34.664Z,21.38
2018-07-15T11:22:03.104Z,21.47
2018-07-15T11:24:31.376Z,21.44
2018-07-15T11:27:00.058Z,21.46
2018-07-15T11:29:28.401Z,21.47
2018-07-15T11:31:56.727Z,21.72
2018-07-15T11:34:25.027Z,21.65
2018-07-15T11:36:53.420Z,21.86
2018-07-15T11:39:21.646Z,21.95
2018-07-15T11:41:50.025Z,22.12
2018-07-15T11:44:18.281Z,22.20
2018-07-15T11:46:47.340Z,22.12
2018-07-15T11:49:15.623Z,21.93
2018-07-15T11:51:43.950Z,22.20
2018-07-15T11:54:12.276Z,22.00
2018-07-15T11:56:40.593Z,22.01
2018-07-15T11:59:08.807Z,22.43
2018-07-15T12:01:37.949Z,22.56
2018-07-15T12:04:06.335Z,22.64
2018-07-15T12:06:34.699Z,22.61
2018-07-15T12:09:03.221Z,22.32
2018-07-15T12:11:31.542Z,22.25
2018-07-15T12:13:59.768Z,22.48
2018-07-15T12:16:28.066Z,22.41
2018-07-15T12:18:56.568Z,22.15
2018-07-15T12:21:24.960Z,22.11
2018-07-15T12:23:53.210Z,22.16
2018-07-15T12:26:21.617Z,22.15
2018-07-15T12:28:49.962Z,22.32
2018-07-15T12:31:18.270Z,22.62
2018-07-15T12:33:46.624Z,22.52
2018-07-15T12:36:15.100Z,22.72
2018-07-15T12:38:44.675Z,22.57
2018-07-15T12:41:13.047Z,22.47
2018-07-15T12:43:41.377Z,22.57
2018-07-15T12:46:09.669Z,22.43
2018-07-15T12:48:38.002Z,22.47
2018-07-15T12:51:06.426Z,22.47
2018-07-15T12:53:35.071Z,22.53
2018-07-15T12:56:03.478Z,22.29
2018-07-15T12:58:31.775Z,22.57
2018-07-15T13:01:00.149Z,22.43
2018-07-15T13:03:28.575Z,22.46
2018-07-15T13:05:56.816Z,22.49
2018-07-15T13:08:25.195Z,22.47
2018-07-15T13:10:53.539Z,22.87
2018-07-15T13:13:21.858Z,22.86
2018-07-15T13:15:50.245Z,23.13
2018-07-15T13:18:18.552Z,23.47
2018-07-15T13:20:46.855Z,23.38
2018-07-15T13:23:15.139Z,23.75
2018-07-15T13:25:43.401Z,23.42
2018-07-15T13:28:11.725Z,23.28
2018-07-15T13:30:40.139Z,22.95
2018-07-15T13:33:08.436Z,23.02
2018-07-15T13:35:36.735Z,22.93
2018-07-15T13:38:05.080Z,22.79
2018-07-15T13:40:33.368Z,23.36
2018-07-15T13:43:02.207Z,23.48
2018-07-15T13:45:30.494Z,23.45
2018-07-15T13:47:58.922Z,23.70
2018-07-15T13:50:27.170Z,23.69
2018-07-15T13:52:55.718Z,23.71
2018-07-15T13:55:24.027Z,23.27
2018-07-15T13:57:52.435Z,23.14
2018-07-15T14:00:20.740Z,23.08
2018-07-15T14:02:49.115Z,23.04
2018-07-15T14:05:17.579Z,23.03
2018-07-15T14:07:45.938Z,23.46
2018-07-15T14:10:14.476Z,23.67
2018-07-15T14:12:42.880Z,24.14
2018-07-15T14:15:11.356Z,23.69
2018-07-15T14:17:39.602Z,23.38
2018-07-15T14:20:08.067Z,23.28
2018-07-15T14:22:36.410Z,23.37
2018-07-15T14:25:04.867Z,23.54
2018-07-15T14:27:33.358Z,23.87
2018-07-15T14:30:01.680Z,24.30
2018-07-15T14:32:30.392Z,24.39
2018-07-15T14:34:58.891Z,24.60
2018-07-15T14:37:27.205Z,24.83
2018-07-15T14:39:55.561Z,24.55
2018-07-15T14:42:23.859Z,23.98
2018-07-15T14:44:52.191Z,23.73
2018-07-15T14:47:20.572Z,23.85
2018-07-15T14:49:48.999Z,24.06
2018-07-15T14:52:17.335Z,24.32
2018-07-15T14:54:45.740Z,24.12
2018-07-15T14:57:14.094Z,24.54
2018-07-15T14:59:42.500Z,24.62
2018-07-15T15:02:10.774Z,24.67
2018-07-15T15:04:39.073Z,24.74
2018-07-15T15:07:07.312Z,24.92
2018-07-15T15:09:35.594Z,25.06
2018-07-15T15:12:03.905Z,25.00
2018-07-15T15:14:32.228Z,25.08
2018-07-15T15:17:00.513Z,25.31
2018-07-15T15:19:28.845Z,25.47
2018-07-15T15:21:57.171Z,25.53
2018-07-15T15:24:25.538Z,25.41
2018-07-15T15:26:53.836Z,25.81
2018-07-15T15:29:22.197Z,25.19
2018-07-15T15:31:50.497Z,24.76
2018-07-15T15:34:18.876Z,24.56
2018-07-15T15:36:47.104Z,24.56
2018-07-15T15:39:15.387Z,24.25
2018-07-15T15:41:43.816Z,24.27
2018-07-15T15:44:12.068Z,24.17
2018-07-15T15:46:40.348Z,24.49
2018-07-15T15:49:08.644Z,24.86
2018-07-15T15:51:36.933Z,25.16
2018-07-15T15:54:05.290Z,25.02
2018-07-15T15:56:33.661Z,25.29
2018-07-15T15:59:01.875Z,25.36
2018-07-15T16:01:30.209Z,25.21
2018-07-15T16:03:58.543Z,25.11
2018-07-15T16:06:26.946Z,25.40
2018-07-15T16:08:55.316Z,25.17
2018-07-15T16:11:23.680Z,24.85
2018-07-15T16:13:51.942Z,24.73
2018-07-15T16:16:20.246Z,24.80
2018-07-15T16:18:48.517Z,24.55
2018-07-15T16:21:16.786Z,24.57
2018-07-15T16:23:46.013Z,24.85
2018-07-15T16:26:14.590Z,24.87
2018-07-15T16:28:42.838Z,24.89
2018-07-15T16:31:11.092Z,25.09
2018-07-15T16:33:39.439Z,25.32
2018-07-15T16:36:07.893Z,25.39
2018-07-15T16:38:36.343Z,25.47
2018-07-15T16:41:04.897Z,25.37
2018-07-15T16:43:33.302Z,25.46
2018-07-15T16:46:01.603Z,25.34
2018-07-15T16:48:29.906Z,25.38
2018-07-15T16:50:58.229Z,25.65
2018-07-15T16:53:26.523Z,25.16
2018-07-15T16:55:54.985Z,25.36
2018-07-15T16:58:23.193Z,24.95
2018-07-15T17:00:51.580Z,25.06
2018-07-15T17:03:19.910Z,24.99
2018-07-15T17:05:48.263Z,25.14
2018-07-15T17:08:16.565Z,25.22
2018-07-15T17:10:44.806Z,25.30
2018-07-15T17:13:13.238Z,25.28
2018-07-15T17:15:41.730Z,25.09
2018-07-15T17:18:10.061Z,25.32
2018-07-15T17:20:38.389Z,25.53
2018-07-15T17:23:06.702Z,25.33
2018-07-15T17:25:34.926Z,25.29
2018-07-15T17:28:03.517Z,25.43
2018-07-15T17:30:31.804Z,25.32
2018-07-15T17:33:01.553Z,25.37
2018-07-15T17:35:31.116Z,25.33
2018-07-15T17:38:00.889Z,25.38
2018-07-15T17:40:30.695Z,25.33
2018-07-15T17:43:01.153Z,25.26
2018-07-15T17:45:30.772Z,25.28
2018-07-15T17:48:00.099Z,25.06
2018-07-15T17:50:29.841Z,25.12
2018-07-15T17:52:58.233Z,25.00
2018-07-15T17:55:26.517Z,25.08
2018-07-15T17:57:55.675Z,25.13
2018-07-15T18:00:24.154Z,25.23
2018-07-15T18:02:52.484Z,25.21
2018-07-15T18:05:20.819Z,25.14
2018-07-15T18:07:49.264Z,25.02
2018-07-15T18:10:17.903Z,25.05
2018-07-15T18:12:46.271Z,25.06
2018-07-15T18:15:14.597Z,24.84
2018-07-15T18:17:42.909Z,25.05
2018-07-15T18:20:11.255Z,24.94
2018-07-15T18:22:39.830Z,24.89
2018-07-15T18:25:08.230Z,24.73
2018-07-15T18:27:36.534Z,24.87
2018-07-15T18:30:05.061Z,24.74
2018-07-15T18:32:33.452Z,24.63
2018-07-15T18:35:01.849Z,24.50
2018-07-15T18:37:30.190Z,24.49
2018-07-15T18:39:58.653Z,24.52
2018-07-15T18:42:27.879Z,24.11
2018-07-15T18:44:57.526Z,24.12
2018-07-15T18:47:26.476Z,24.13
2018-07-15T18:49:54.778Z,24.08
2018-07-15T18:52:23.855Z,24.06
2018-07-15T18:54:52.127Z,23.92
2018-07-15T18:57:20.724Z,23.92
2018-07-15T18:59:49.829Z,23.92
2018-07-15T19:02:18.301Z,23.90
2018-07-15T19:04:46.672Z,23.76
2018-07-15T19:07:14.969Z,23.76
2018-07-15T19:09:43.299Z,23.77
2018-07-15T19:12:11.791Z,23.80
2018-07-15T19:14:40.425Z,23.77
2018-07-15T19:17:08.783Z,23.61
2018-07-15T19:19:37.275Z,23.23
2018-07-15T19:22:05.725Z,23.52
2018-07-15T19:24:34.799Z,23.55
2018-07-15T19:27:03.127Z,23.38
2018-07-15T19:29:31.676Z,23.46
2018-07-15T19:32:00.949Z,23.29
2018-07-15T19:34:30.156Z,23.34
2018-07-15T19:36:58.463Z,23.25
2018-07-15T19:39:26.833Z,23.03
2018-07-15T19:41:55.187Z,22.81
2018-07-15T19:44:23.515Z,22.91
2018-07-15T19:46:51.820Z,22.93
2018-07-15T19:49:20.138Z,22.88
2018-07-15T19:51:48.516Z,22.80
2018-07-15T19:54:16.906Z,22.79
2018-07-15T19:56:45.249Z,22.68
2018-07-15T19:59:13.631Z,22.80
2018-07-15T20:01:41.870Z,22.70
2018-07-15T20:04:10.375Z,22.65
2018-07-15T20:06:38.677Z,22.58
2018-07-15T20:09:06.926Z,22.33
2018-07-15T20:11:35.221Z,22.50
2018-07-15T20:14:03.545Z,22.49
2018-07-15T20:16:32.557Z,22.48
2018-07-15T20:19:00.873Z,22.45
2018-07-15T20:21:29.203Z,22.35
2018-07-15T20:23:57.537Z,22.42
2018-07-15T20:26:25.808Z,22.36
2018-07-15T20:28:54.272Z,22.24
2018-07-15T20:31:22.553Z,22.18
2018-07-15T20:33:50.882Z,22.18
2018-07-15T20:36:19.205Z,22.29
2018-07-15T20:38:47.501Z,22.30
2018-07-15T20:41:15.767Z,22.08
2018-07-15T20:43:44.079Z,22.10
2018-07-15T20:46:12.358Z,22.15
2018-07-15T20:48:40.698Z,22.08
2018-07-15T20:51:09.643Z,22.08
2018-07-15T20:53:38.016Z,22.13
2018-07-15T20:56:06.336Z,22.15
2018-07-15T20:58:35.603Z,21.55
2018-07-15T21:01:03.886Z,21.46
2018-07-15T21:03:32.155Z,21.35
2018-07-15T21:06:00.512Z,21.15
2018-07-15T21:08:28.792Z,21.17
2018-07-15T21:10:57.085Z,21.08
2018-07-15T21:13:25.492Z,21.10
2018-07-15T21:15:53.930Z,21.16
2018-07-15T21:18:22.607Z,21.38
2018-07-15T21:20:50.996Z,21.00
2018-07-15T21:23:19.341Z,21.40
2018-07-15T21:25:47.704Z,21.38
2018-07-15T21:28:15.969Z,21.52
2018-07-15T21:30:44.380Z,21.46
2018-07-15T21:33:12.696Z,21.28
2018-07-15T21:35:40.974Z,21.13
2018-07-15T21:38:09.333Z,21.02
2018-07-15T21:40:38.057Z,21.09
2018-07-15T21:43:06.446Z,20.97
2018-07-15T21:45:34.867Z,20.68
2018-07-15T21:48:03.237Z,20.65
2018-07-15T21:50:31.638Z,20.59
2018-07-15T21:52:59.933Z,20.37
2018-07-15T21:55:28.196Z,20.24
2018-07-15T21:57:56.473Z,20.29
2018-07-15T22:00:24.770Z,20.10
2018-07-15T22:02:53.200Z,20.06
2018-07-15T22:05:21.490Z,19.82
2018-07-15T22:08:01.078Z,19.77
2018-07-15T22:10:42.027Z,19.73
2018-07-15T22:13:10.283Z,19.57
2018-07-15T22:15:38.695Z,19.60
2018-07-15T22:18:07.045Z,19.38
2018-07-15T22:20:35.590Z,19.56
2018-07-15T22:23:03.911Z,19.64
2018-07-15T22:25:32.290Z,19.58
2018-07-15T22:28:01.740Z,19.72
2018-07-15T22:30:30.712Z,19.52
2018-07-15T22:32:59.019Z,19.55
2018-07-15T22:35:27.417Z,19.34
2018-07-15T22:37:55.697Z,19.24
2018-07-15T22:40:24.012Z,19.20
2018-07-15T22:42:52.283Z,19.14
2018-07-15T22:45:20.632Z,19.43
2018-07-15T22:47:48.907Z,19.53
2018-07-15T22:50:17.243Z,19.29
2018-07-15T22:52:45.488Z,18.84
2018-07-15T22:55:13.783Z,18.77
2018-07-15T22:57:42.241Z,18.69
2018-07-15T23:00:10.548Z,18.87
2018-07-15T23:02:38.805Z,18.91
2018-07-15T23:05:45.698Z,18.82
2018-07-15T23:08:13.987Z,18.50
2018-07-15T23:10:42.314Z,18.68
2018-07-15T23:13:11.337Z,18.58
2018-07-15T23:15:40.142Z,18.62
2018-07-15T23:18:08.471Z,18.44
2018-07-15T23:20:37.623Z,18.44
2018-07-15T23:23:06.767Z,18.36
2018-07-15T23:25:35.287Z,18.48
2018-07-15T23:28:04.365Z,18.39
2018-07-15T23:30:34.313Z,18.48
2018-07-15T23:33:03.200Z,18.34
2018-07-15T23:35:32.048Z,18.17
2018-07-15T23:38:00.398Z,18.35
2018-07-15T23:40:28.679Z,18.88
2018-07-15T23:42:57.853Z,18.36
2018-07-15T23:45:26.897Z,18.44
2018-07-15T23:47:56.369Z,18.79
2018-07-15T23:50:24.662Z,18.41
2018-07-15T23:52:53.013Z,18.21
2018-07-15T23:55:21.398Z,18.42
2018-07-15T23:57:49.733Z,18.68
